createdAt,value
2023-01-25T00:00:54.409Z,14.07
2023-01-25T00:03:21.416Z,16.27
2023-01-25T00:05:48.415Z,15.27
2023-01-25T00:08:15.352Z,13.13
2023-01-25T00:10:43.553Z,12.37
2023-01-25T00:13:10.384Z,17.90
2023-01-25T00:15:37.469Z,14.47
2023-01-25T00:18:04.528Z,15.03
2023-01-25T00:20:31.351Z,14.80
2023-01-25T00:22:58.283Z,14.60
2023-01-25T00:25:25.222Z,14.77
2023-01-25T00:27:53.503Z,13.83
2023-01-25T00:30:20.558Z,14.17
2023-01-25T00:32:53.156Z,14.07
2023-01-25T00:35:21.548Z,16.13
2023-01-25T00:37:50.073Z,17.30
2023-01-25T00:40:17.459Z,14.57
2023-01-25T00:42:44.510Z,13.00
2023-01-25T00:45:13.328Z,15.30
2023-01-25T00:47:40.376Z,13.37
2023-01-25T00:50:08.915Z,12.20
2023-01-25T00:52:35.974Z,13.20
2023-01-25T00:55:03.204Z,15.43
2023-01-25T00:57:31.067Z,13.57
2023-01-25T00:59:57.938Z,13.77
2023-01-25T01:02:26.154Z,14.13
2023-01-25T01:04:53.155Z,13.77
2023-01-25T01:07:19.987Z,15.13
2023-01-25T01:09:46.913Z,13.23
2023-01-25T01:12:13.810Z,14.37
2023-01-25T01:14:40.668Z,13.47
2023-01-25T01:17:07.624Z,13.83
2023-01-25T01:19:35.976Z,13.40
2023-01-25T01:22:02.830Z,10.67
2023-01-25T01:24:29.838Z,13.73
2023-01-25T01:26:56.770Z,15.10
2023-01-25T01:29:23.815Z,15.63
2023-01-25T01:31:52.353Z,14.10
2023-01-25T01:34:20.047Z,11.83
2023-01-25T01:36:48.663Z,13.07
2023-01-25T01:39:16.057Z,10.90
2023-01-25T01:41:43.027Z,13.57
2023-01-25T01:44:16.691Z,12.07
2023-01-25T01:46:48.661Z,13.43
2023-01-25T01:49:19.637Z,11.93
2023-01-25T01:51:50.546Z,13.10
2023-01-25T01:54:21.764Z,12.90
2023-01-25T01:56:55.570Z,10.83
2023-01-25T01:59:27.365Z,12.47
2023-01-25T02:01:55.231Z,12.30
2023-01-25T02:04:23.955Z,13.47
2023-01-25T02:06:56.118Z,13.20
2023-01-25T02:09:25.551Z,15.43
2023-01-25T02:11:53.632Z,14.07
2023-01-25T02:14:21.441Z,12.77
2023-01-25T02:16:48.416Z,12.63
2023-01-25T02:19:29.075Z,10.67
2023-01-25T02:21:58.993Z,14.17
2023-01-25T02:24:31.059Z,11.70
2023-01-25T02:26:59.544Z,14.90
2023-01-25T02:29:27.511Z,12.30
2023-01-25T02:31:59.843Z,12.70
2023-01-25T02:34:26.819Z,14.17
2023-01-25T02:36:53.795Z,12.13
2023-01-25T02:39:21.534Z,11.93
2023-01-25T02:41:48.442Z,13.60
2023-01-25T02:44:21.281Z,13.00
2023-01-25T02:46:48.751Z,13.73
2023-01-25T02:49:16.465Z,14.70
2023-01-25T02:51:44.929Z,12.43
2023-01-25T02:54:14.483Z,12.53
2023-01-25T02:56:41.406Z,11.60
2023-01-25T02:59:08.690Z,13.80
2023-01-25T03:01:38.894Z,14.90
2023-01-25T03:04:06.896Z,13.23
2023-01-25T03:06:34.589Z,14.07
2023-01-25T03:09:02.186Z,13.07
2023-01-25T03:11:29.070Z,13.73
2023-01-25T03:13:55.992Z,13.03
2023-01-25T03:16:22.980Z,11.90
2023-01-25T03:18:53.455Z,13.23
2023-01-25T03:21:21.806Z,11.17
2023-01-25T03:23:54.775Z,14.90
2023-01-25T03:26:22.600Z,13.80
2023-01-25T03:28:49.502Z,13.40
2023-01-25T03:31:17.250Z,13.83
2023-01-25T03:33:44.466Z,13.10
2023-01-25T03:36:12.775Z,14.37
2023-01-25T03:38:39.645Z,13.67
2023-01-25T03:41:07.826Z,14.57
2023-01-25T03:43:34.690Z,12.63
2023-01-25T03:46:02.275Z,14.13
2023-01-25T03:48:29.460Z,12.60
2023-01-25T03:50:57.958Z,13.77
2023-01-25T03:53:29.667Z,12.93
2023-01-25T03:56:00.974Z,13.07
2023-01-25T03:58:28.515Z,16.63
2023-01-25T04:00:56.538Z,10.67
2023-01-25T04:03:25.046Z,15.63
2023-01-25T04:05:52.348Z,14.67
2023-01-25T04:08:19.797Z,14.73
2023-01-25T04:10:52.675Z,13.33
2023-01-25T04:13:20.006Z,12.17
2023-01-25T04:15:46.945Z,13.27
2023-01-25T04:18:13.814Z,13.67
2023-01-25T04:20:42.451Z,12.17
2023-01-25T04:23:10.711Z,14.23
2023-01-25T04:25:38.275Z,15.07
2023-01-25T04:28:06.656Z,13.03
2023-01-25T04:30:33.667Z,12.53
2023-01-25T04:33:03.897Z,14.97
2023-01-25T04:35:30.984Z,15.43
2023-01-25T04:37:59.234Z,15.73
2023-01-25T04:40:26.388Z,13.57
2023-01-25T04:42:53.223Z,13.90
2023-01-25T04:45:21.502Z,13.83
2023-01-25T04:47:48.759Z,14.03
2023-01-25T04:50:16.016Z,16.03
2023-01-25T04:52:42.855Z,11.47
2023-01-25T04:55:10.297Z,15.27
2023-01-25T04:57:37.306Z,14.60
2023-01-25T05:00:05.094Z,15.77
2023-01-25T05:02:33.342Z,15.20
2023-01-25T05:05:00.612Z,14.23
2023-01-25T05:07:27.494Z,16.57
2023-01-25T05:09:54.349Z,17.63
2023-01-25T05:12:21.323Z,15.40
2023-01-25T05:14:48.254Z,14.90
2023-01-25T05:17:15.174Z,15.03
2023-01-25T05:19:43.559Z,18.03
2023-01-25T05:22:13.718Z,14.83
2023-01-25T05:24:41.746Z,15.97
2023-01-25T05:27:10.239Z,14.17
2023-01-25T05:29:39.667Z,14.90
2023-01-25T05:32:09.558Z,15.37
2023-01-25T05:34:37.321Z,16.63
2023-01-25T05:37:07.554Z,14.73
2023-01-25T05:39:34.562Z,17.57
2023-01-25T05:42:01.594Z,16.57
2023-01-25T05:44:28.578Z,16.57
2023-01-25T05:46:55.465Z,17.97
2023-01-25T05:49:22.355Z,15.00
2023-01-25T05:51:49.237Z,18.87
2023-01-25T05:54:19.373Z,18.90
2023-01-25T05:56:48.973Z,16.63
2023-01-25T05:59:17.298Z,18.27
2023-01-25T06:01:44.851Z,14.73
2023-01-25T06:04:15.049Z,16.10
2023-01-25T06:06:42.405Z,15.27
2023-01-25T06:09:11.181Z,19.17
2023-01-25T06:11:39.882Z,17.33
2023-01-25T06:14:06.774Z,18.60
2023-01-25T06:16:33.656Z,16.80
2023-01-25T06:19:00.564Z,15.70
2023-01-25T06:21:27.628Z,18.63
2023-01-25T06:23:55.189Z,17.97
2023-01-25T06:26:22.029Z,16.43
2023-01-25T06:28:52.037Z,16.03
2023-01-25T06:31:19.748Z,19.97
2023-01-25T06:33:49.376Z,17.20
2023-01-25T06:36:18.534Z,17.90
2023-01-25T06:38:49.664Z,18.67
2023-01-25T06:41:16.781Z,18.97
2023-01-25T06:43:43.618Z,18.87
2023-01-25T06:46:12.558Z,18.40
2023-01-25T06:48:41.069Z,17.30
2023-01-25T06:51:09.931Z,15.93
2023-01-25T06:53:39.570Z,19.40
2023-01-25T06:56:10.813Z,17.13
2023-01-25T06:58:39.000Z,20.73
2023-01-25T07:01:08.113Z,18.90
2023-01-25T07:03:36.332Z,18.70
2023-01-25T07:06:05.263Z,19.53
2023-01-25T07:08:32.389Z,16.37
2023-01-25T07:11:01.811Z,18.33
2023-01-25T07:13:30.339Z,19.77
2023-01-25T07:15:58.975Z,18.33
2023-01-25T07:18:26.677Z,16.33
2023-01-25T07:20:54.884Z,19.77
2023-01-25T07:23:22.152Z,18.90
2023-01-25T07:25:50.313Z,19.27
2023-01-25T07:28:17.929Z,18.47
2023-01-25T07:30:44.844Z,19.97
2023-01-25T07:33:11.769Z,17.77
2023-01-25T07:35:38.887Z,17.13
2023-01-25T07:38:07.300Z,18.00
2023-01-25T07:40:34.369Z,18.20
2023-01-25T07:43:01.283Z,19.33
2023-01-25T07:45:30.866Z,21.60
2023-01-25T07:47:58.878Z,22.13
2023-01-25T07:50:27.026Z,19.33
2023-01-25T07:52:54.081Z,19.57
2023-01-25T07:55:22.470Z,19.70
2023-01-25T07:57:53.802Z,19.87
2023-01-25T08:00:20.896Z,18.17
2023-01-25T08:02:50.509Z,18.47
2023-01-25T08:05:17.407Z,17.47
2023-01-25T08:07:44.634Z,19.00
2023-01-25T08:10:12.037Z,26.63
2023-01-25T08:12:40.290Z,17.93
2023-01-25T08:15:09.291Z,18.57
2023-01-25T08:17:36.515Z,20.63
2023-01-25T08:20:04.513Z,18.93
2023-01-25T08:22:31.535Z,18.40
2023-01-25T08:25:01.134Z,20.03
2023-01-25T08:27:28.192Z,20.80
2023-01-25T08:29:56.935Z,19.93
2023-01-25T08:32:23.792Z,21.87
2023-01-25T08:34:50.795Z,19.13
2023-01-25T08:37:17.683Z,19.17
2023-01-25T08:39:44.608Z,19.90
2023-01-25T08:42:11.464Z,22.07
2023-01-25T08:44:38.326Z,21.17
2023-01-25T08:47:09.988Z,19.53
2023-01-25T08:49:38.343Z,19.83
2023-01-25T08:52:05.470Z,19.87
2023-01-25T08:54:32.416Z,20.60
2023-01-25T08:57:00.837Z,24.97
2023-01-25T08:59:27.759Z,22.30
2023-01-25T09:01:54.667Z,23.07
2023-01-25T09:04:28.322Z,21.67
2023-01-25T09:06:55.772Z,20.47
2023-01-25T09:09:22.539Z,20.40
2023-01-25T09:11:49.697Z,20.23
2023-01-25T09:14:16.637Z,21.13
2023-01-25T09:16:43.456Z,21.53
2023-01-25T09:19:10.381Z,23.33
2023-01-25T09:21:40.081Z,22.63
2023-01-25T09:24:08.321Z,19.13
2023-01-25T09:26:37.079Z,20.60
2023-01-25T09:29:04.528Z,20.07
2023-01-25T09:31:31.759Z,20.63
2023-01-25T09:33:58.811Z,20.43
2023-01-25T09:36:25.940Z,16.97
2023-01-25T09:38:55.509Z,19.60
2023-01-25T09:41:47.647Z,20.37
2023-01-25T09:44:31.632Z,19.07
2023-01-25T09:47:02.020Z,20.00
2023-01-25T09:49:45.547Z,20.37
2023-01-25T09:52:29.538Z,19.73
2023-01-25T09:54:58.810Z,22.07
2023-01-25T09:57:32.022Z,19.90
2023-01-25T10:00:07.203Z,23.53
2023-01-25T10:02:40.921Z,20.73
2023-01-25T10:05:14.603Z,20.27
2023-01-25T10:07:53.641Z,20.00
2023-01-25T10:10:29.950Z,21.87
2023-01-25T10:12:56.837Z,23.87
2023-01-25T10:15:29.671Z,18.90
2023-01-25T10:18:01.785Z,21.10
2023-01-25T10:20:35.943Z,19.00
2023-01-25T10:23:28.365Z,19.53
2023-01-25T10:26:03.200Z,20.23
2023-01-25T10:28:39.765Z,18.23
2023-01-25T10:31:15.137Z,20.03
2023-01-25T10:33:44.968Z,20.93
2023-01-25T10:36:14.699Z,18.63
2023-01-25T10:38:43.462Z,18.37
2023-01-25T10:41:18.524Z,17.73
2023-01-25T10:43:45.346Z,20.33
2023-01-25T10:46:20.475Z,20.33
2023-01-25T10:48:47.513Z,18.37
2023-01-25T10:51:30.273Z,15.70
2023-01-25T10:54:01.683Z,19.13
2023-01-25T10:56:32.910Z,20.07
2023-01-25T10:59:17.655Z,18.53
2023-01-25T11:01:45.197Z,21.07
2023-01-25T11:04:33.345Z,17.67
2023-01-25T11:07:02.566Z,19.50
2023-01-25T11:09:38.378Z,18.80
2023-01-25T11:12:18.450Z,21.13
2023-01-25T11:14:46.530Z,20.33
2023-01-25T11:17:24.294Z,22.13
2023-01-25T11:20:16.178Z,22.30
2023-01-25T11:22:50.857Z,20.00
2023-01-25T11:25:27.146Z,21.63
2023-01-25T11:28:11.092Z,21.03
2023-01-25T11:30:38.399Z,18.30
2023-01-25T11:33:11.184Z,20.67
2023-01-25T11:35:47.761Z,20.37
2023-01-25T11:38:18.015Z,19.90
2023-01-25T11:40:49.028Z,19.13
2023-01-25T11:43:30.215Z,19.33
2023-01-25T11:46:17.707Z,21.03
2023-01-25T11:49:03.247Z,20.60
2023-01-25T11:51:35.841Z,19.33
2023-01-25T11:54:18.036Z,21.37
2023-01-25T11:56:58.311Z,16.63
2023-01-25T11:59:40.223Z,22.10
2023-01-25T12:02:26.997Z,20.40
2023-01-25T12:05:21.179Z,22.97
2023-01-25T12:07:53.085Z,19.77
2023-01-25T12:10:27.011Z,21.67
2023-01-25T12:13:00.187Z,23.93
2023-01-25T12:15:58.413Z,22.23
2023-01-25T12:18:47.331Z,25.43
2023-01-25T12:21:31.285Z,18.23
2023-01-25T12:24:08.518Z,19.77
2023-01-25T12:26:46.153Z,22.70
2023-01-25T12:29:26.272Z,19.20
2023-01-25T12:32:00.955Z,21.87
2023-01-25T12:34:33.945Z,19.87
2023-01-25T12:37:08.588Z,22.30
2023-01-25T12:39:44.117Z,18.57
2023-01-25T12:42:18.729Z,18.90
2023-01-25T12:44:49.370Z,19.00
2023-01-25T12:47:23.512Z,19.07
2023-01-25T12:49:54.958Z,21.40
2023-01-25T12:52:28.077Z,19.90
2023-01-25T12:55:00.357Z,21.23
2023-01-25T12:57:34.013Z,21.47
2023-01-25T13:00:10.175Z,20.80
2023-01-25T13:03:00.984Z,22.50
2023-01-25T13:05:34.133Z,21.97
2023-01-25T13:08:14.029Z,22.30
2023-01-25T13:10:48.788Z,22.33
2023-01-25T13:13:22.150Z,20.57
2023-01-25T13:15:49.657Z,21.77
2023-01-25T13:18:42.487Z,22.83
2023-01-25T13:21:11.965Z,22.00
2023-01-25T13:23:51.977Z,21.97
2023-01-25T13:26:39.617Z,22.67
2023-01-25T13:29:51.096Z,23.23
2023-01-25T13:33:03.646Z,22.07
2023-01-25T13:35:44.266Z,21.33
2023-01-25T13:38:33.831Z,21.33
2023-01-25T13:41:18.683Z,21.03
2023-01-25T13:43:48.758Z,70.67
2023-01-25T13:46:19.622Z,21.43
2023-01-25T13:49:08.145Z,21.37
2023-01-25T13:51:40.633Z,22.27
2023-01-25T13:54:15.489Z,24.40
2023-01-25T13:56:42.559Z,22.37
2023-01-25T13:59:24.337Z,21.87
2023-01-25T14:01:52.501Z,19.73
2023-01-25T14:04:19.539Z,22.27
2023-01-25T14:06:47.867Z,23.63
2023-01-25T14:09:17.372Z,27.97
2023-01-25T14:11:48.436Z,21.07
2023-01-25T14:14:24.358Z,20.97
2023-01-25T14:17:03.788Z,21.20
2023-01-25T14:19:31.934Z,21.33
2023-01-25T14:22:25.169Z,24.50
2023-01-25T14:25:07.736Z,22.00
2023-01-25T14:27:35.668Z,24.30
2023-01-25T14:30:05.183Z,21.27
2023-01-25T14:32:32.585Z,21.50
2023-01-25T14:35:19.452Z,21.90
2023-01-25T14:37:47.660Z,22.93
2023-01-25T14:40:20.269Z,21.57
2023-01-25T14:42:47.637Z,23.70
2023-01-25T14:45:15.126Z,22.30
2023-01-25T14:47:45.263Z,20.87
2023-01-25T14:50:35.020Z,24.87
2023-01-25T14:53:15.273Z,25.17
2023-01-25T14:55:44.770Z,21.67
2023-01-25T14:58:17.296Z,22.33
2023-01-25T15:00:52.370Z,23.03
2023-01-25T15:03:21.323Z,22.20
2023-01-25T15:05:49.051Z,23.67
2023-01-25T15:08:28.452Z,23.10
2023-01-25T15:10:56.648Z,21.40
2023-01-25T15:13:25.619Z,20.50
2023-01-25T15:15:55.196Z,23.10
2023-01-25T15:18:41.471Z,23.83
2023-01-25T15:21:09.664Z,26.67
2023-01-25T15:23:38.125Z,26.10
2023-01-25T15:26:14.004Z,24.40
2023-01-25T15:28:40.836Z,23.60
2023-01-25T15:31:15.554Z,22.27
2023-01-25T15:33:42.494Z,23.93
2023-01-25T15:36:10.052Z,28.83
2023-01-25T15:38:38.333Z,24.07
2023-01-25T15:41:05.511Z,25.00
2023-01-25T15:43:32.416Z,23.97
2023-01-25T15:46:00.755Z,22.10
2023-01-25T15:48:30.785Z,27.23
2023-01-25T15:50:57.785Z,23.07
2023-01-25T15:53:25.293Z,28.67
2023-01-25T15:55:57.229Z,28.67
2023-01-25T15:58:27.559Z,24.00
2023-01-25T16:00:54.639Z,28.53
2023-01-25T16:03:21.672Z,24.67
2023-01-25T16:05:51.840Z,23.03
2023-01-25T16:08:20.969Z,23.83
2023-01-25T16:10:48.061Z,25.13
2023-01-25T16:13:16.294Z,27.73
2023-01-25T16:15:52.291Z,24.80
2023-01-25T16:18:19.433Z,25.00
2023-01-25T16:20:46.428Z,26.87
2023-01-25T16:23:13.497Z,22.93
2023-01-25T16:25:41.277Z,26.43
2023-01-25T16:28:13.354Z,26.17
2023-01-25T16:30:41.811Z,27.47
2023-01-25T16:33:08.606Z,28.10
2023-01-25T16:35:35.731Z,21.73
2023-01-25T16:38:02.642Z,28.63
2023-01-25T16:40:36.519Z,28.57
2023-01-25T16:43:04.112Z,26.63
2023-01-25T16:45:31.508Z,21.37
2023-01-25T16:48:00.141Z,22.10
2023-01-25T16:50:27.003Z,25.87
2023-01-25T16:52:54.855Z,27.00
2023-01-25T16:55:21.790Z,24.33
2023-01-25T16:57:50.621Z,28.20
2023-01-25T17:00:18.262Z,25.50
2023-01-25T17:02:58.104Z,30.67
2023-01-25T17:05:33.597Z,23.83
2023-01-25T17:08:00.646Z,22.97
2023-01-25T17:10:28.875Z,22.17
2023-01-25T17:12:55.782Z,21.50
2023-01-25T17:15:22.650Z,23.07
2023-01-25T17:17:50.720Z,22.87
2023-01-25T17:20:17.792Z,26.40
2023-01-25T17:22:50.943Z,27.27
2023-01-25T17:25:18.343Z,25.67
2023-01-25T17:27:45.208Z,28.77
2023-01-25T17:30:13.075Z,23.87
2023-01-25T17:32:40.886Z,26.80
2023-01-25T17:35:08.539Z,26.80
2023-01-25T17:37:35.417Z,21.63
2023-01-25T17:40:03.991Z,23.73
2023-01-25T17:42:30.847Z,23.03
2023-01-25T17:44:57.694Z,27.00
2023-01-25T17:47:25.879Z,24.30
2023-01-25T17:49:52.727Z,29.30
2023-01-25T17:52:19.536Z,27.70
2023-01-25T17:54:46.347Z,26.93
2023-01-25T17:57:15.987Z,30.83
2023-01-25T17:59:42.882Z,26.83
2023-01-25T18:02:10.943Z,30.47
2023-01-25T18:04:37.865Z,27.67
2023-01-25T18:07:04.684Z,27.27
2023-01-25T18:09:33.751Z,28.33
2023-01-25T18:12:00.707Z,29.67
2023-01-25T18:14:29.477Z,30.03
2023-01-25T18:16:56.538Z,30.40
2023-01-25T18:19:23.359Z,28.87
2023-01-25T18:21:50.196Z,30.50
2023-01-25T18:24:29.624Z,28.23
2023-01-25T18:27:00.739Z,31.60
2023-01-25T18:29:46.599Z,27.17
2023-01-25T18:32:14.133Z,33.50
2023-01-25T18:34:41.033Z,29.10
2023-01-25T18:37:17.869Z,28.50
2023-01-25T18:39:45.103Z,27.43
2023-01-25T18:42:12.041Z,30.30
2023-01-25T18:44:38.952Z,26.23
2023-01-25T18:47:08.064Z,30.13
2023-01-25T18:49:34.923Z,30.70
2023-01-25T18:52:11.452Z,32.67
2023-01-25T18:54:38.884Z,29.47
2023-01-25T18:57:06.894Z,34.30
2023-01-25T18:59:33.801Z,30.63
2023-01-25T19:02:00.683Z,27.13
2023-01-25T19:04:29.128Z,33.37
2023-01-25T19:07:01.409Z,26.83
2023-01-25T19:09:28.962Z,29.67
2023-01-25T19:11:56.396Z,33.97
2023-01-25T19:14:23.748Z,35.43
2023-01-25T19:16:51.061Z,31.70
2023-01-25T19:19:18.359Z,29.70
2023-01-25T19:21:47.172Z,32.63
2023-01-25T19:24:19.563Z,29.00
2023-01-25T19:26:47.394Z,36.53
2023-01-25T19:29:15.457Z,30.20
2023-01-25T19:31:42.849Z,29.37
2023-01-25T19:34:09.890Z,31.33
2023-01-25T19:36:39.359Z,31.90
2023-01-25T19:39:10.434Z,28.57
2023-01-25T19:41:38.825Z,34.77
2023-01-25T19:44:07.325Z,34.90
2023-01-25T19:46:35.775Z,29.97
2023-01-25T19:49:04.557Z,32.60
2023-01-25T19:51:33.721Z,37.53
2023-01-25T19:54:03.341Z,32.37
2023-01-25T19:56:34.176Z,36.60
2023-01-25T19:59:03.262Z,33.83
2023-01-25T20:01:30.185Z,33.17
2023-01-25T20:03:57.993Z,35.80
2023-01-25T20:06:26.069Z,34.93
2023-01-25T20:08:53.715Z,35.00
2023-01-25T20:11:22.403Z,35.70
2023-01-25T20:13:52.288Z,34.83
2023-01-25T20:16:20.106Z,32.83
2023-01-25T20:18:48.802Z,37.70
2023-01-25T20:21:17.363Z,32.13
2023-01-25T20:23:46.523Z,34.73
2023-01-25T20:26:15.681Z,34.87
2023-01-25T20:28:44.129Z,32.00
2023-01-25T20:31:20.815Z,32.30
2023-01-25T20:33:48.674Z,32.10
2023-01-25T20:36:15.759Z,33.73
2023-01-25T20:38:43.250Z,31.17
2023-01-25T20:41:14.096Z,34.57
2023-01-25T20:43:45.235Z,31.60
2023-01-25T20:46:12.160Z,34.77
2023-01-25T20:48:40.538Z,32.63
2023-01-25T20:51:13.920Z,35.00
2023-01-25T20:53:42.210Z,30.17
2023-01-25T20:56:10.220Z,31.83
2023-01-25T20:58:37.462Z,29.27
2023-01-25T21:01:04.654Z,27.63
2023-01-25T21:03:31.582Z,31.10
2023-01-25T21:06:00.705Z,22.23
2023-01-25T21:08:28.356Z,22.97
2023-01-25T21:10:57.029Z,21.93
2023-01-25T21:13:24.558Z,23.50
2023-01-25T21:16:01.916Z,22.77
2023-01-25T21:18:30.054Z,20.03
2023-01-25T21:21:02.704Z,24.30
2023-01-25T21:23:29.774Z,24.03
2023-01-25T21:25:57.090Z,22.80
2023-01-25T21:28:23.930Z,23.13
2023-01-25T21:30:50.789Z,21.13
2023-01-25T21:33:17.822Z,24.13
2023-01-25T21:35:44.726Z,19.83
2023-01-25T21:38:13.001Z,17.93
2023-01-25T21:40:39.822Z,21.47
2023-01-25T21:43:07.132Z,17.77
2023-01-25T21:45:52.818Z,18.97
2023-01-25T21:48:39.627Z,16.90
2023-01-25T21:51:25.168Z,18.97
2023-01-25T21:53:53.554Z,20.93
2023-01-25T21:56:20.412Z,17.23
2023-01-25T21:58:48.345Z,13.13
2023-01-25T22:01:15.780Z,18.67
2023-01-25T22:03:46.614Z,16.80
2023-01-25T22:06:13.545Z,17.77
2023-01-25T22:08:40.424Z,21.27
2023-01-25T22:11:10.636Z,16.53
2023-01-25T22:13:38.048Z,20.30
2023-01-25T22:16:06.723Z,19.47
2023-01-25T22:18:36.011Z,18.97
2023-01-25T22:21:05.576Z,18.80
2023-01-25T22:23:33.668Z,21.17
2023-01-25T22:26:02.397Z,18.30
2023-01-25T22:28:33.952Z,19.03
2023-01-25T22:31:00.968Z,23.00
2023-01-25T22:33:27.980Z,26.20
2023-01-25T22:35:54.924Z,23.97
2023-01-25T22:38:21.868Z,25.77
2023-01-25T22:40:48.784Z,27.43
2023-01-25T22:43:15.764Z,24.53
2023-01-25T22:45:51.225Z,24.37
2023-01-25T22:48:18.639Z,22.10
2023-01-25T22:50:45.641Z,27.57
2023-01-25T22:53:12.795Z,22.67
2023-01-25T22:55:39.732Z,25.07
2023-01-25T22:58:06.913Z,26.97
2023-01-25T23:00:33.788Z,25.03
2023-01-25T23:03:02.056Z,24.23
2023-01-25T23:05:29.846Z,23.73
2023-01-25T23:07:57.130Z,21.47
2023-01-25T23:10:24.008Z,21.17
2023-01-25T23:12:53.819Z,26.17
2023-01-25T23:15:20.607Z,27.20
2023-01-25T23:18:06.058Z,21.77
2023-01-25T23:20:34.831Z,23.73
2023-01-25T23:23:01.942Z,26.67
2023-01-25T23:25:29.424Z,25.97
2023-01-25T23:27:56.342Z,24.43
2023-01-25T23:30:23.382Z,24.00
2023-01-25T23:32:50.553Z,24.77
2023-01-25T23:35:20.172Z,23.30
2023-01-25T23:37:48.647Z,25.07
2023-01-25T23:40:16.168Z,22.63
2023-01-25T23:42:43.187Z,24.67
2023-01-25T23:45:11.116Z,20.63
2023-01-25T23:47:38.438Z,24.63
2023-01-25T23:50:06.553Z,23.13
2023-01-25T23:52:34.955Z,28.23
2023-01-25T23:55:03.555Z,24.97
2023-01-25T23:57:30.570Z,25.87
2023-01-25T23:59:57.537Z,29.27
